sensor_id;sensor_type;location;lat;lon;timestamp;pressure;altitude;pressure_sealevel;temperature;humidity
13734;BME280;43298;52.560;13.508;2024-03-08T00:02:04;100596.50;;;0.45;100.00
13734;BME280;43298;52.560;13.508;2024-03-08T00:04:30;100593.09;;;0.49;100.00
13734;BME280;43298;52.560;13.508;2024-03-08T00:06:56;100586.34;;;0.47;100.00
13734;BME280;43298;52.560;13.508;2024-03-08T00:09:22;100589.78;;;0.31;100.00
13734;BME280;43298;52.560;13.508;2024-03-08T00:11:47;100588.97;;;0.18;100.00
13734;BME280;43298;52.560;13.508;2024-03-08T00:14:16;100588.97;;;0.11;100.00
13734;BME280;43298;52.560;13.508;2024-03-08T00:16:41;100581.38;;;-0.03;100.00
13734;BME280;43298;52.560;13.508;2024-03-08T00:19:09;100576.31;;;-0.14;100.00
13734;BME280;43298;52.560;13.508;2024-03-08T00:21:35;100567.84;;;-0.20;100.00
13734;BME280;43298;52.560;13.508;2024-03-08T00:24:01;100562.78;;;-0.22;100.00
13734;BME280;43298;52.560;13.508;2024-03-08T00:26:27;100555.19;;;-0.32;100.00
13734;BME280;43298;52.560;13.508;2024-03-08T00:28:55;100542.47;;;-0.38;100.00
13734;BME280;43298;52.560;13.508;2024-03-08T00:31:21;100532.31;;;-0.47;100.00
13734;BME280;43298;52.560;13.508;2024-03-08T00:33:47;100528.94;;;-0.54;100.00
13734;BME280;43298;52.560;13.508;2024-03-08T00:36:13;100514.56;;;-0.56;100.00
13734;BME280;43298;52.560;13.508;2024-03-08T00:38:38;100508.66;;;-0.64;100.00
13734;BME280;43298;52.560;13.508;2024-03-08T00:41:04;100495.94;;;-0.69;100.00
13734;BME280;43298;52.560;13.508;2024-03-08T00:43:30;100488.34;;;-0.73;100.00
13734;BME280;43298;52.560;13.508;2024-03-08T00:45:56;100464.63;;;-0.75;100.00
13734;BME280;43298;52.560;13.508;2024-03-08T00:48:23;100451.09;;;-0.68;100.00
13734;BME280;43298;52.560;13.508;2024-03-08T00:50:49;100435.84;;;-0.68;100.00
13734;BME280;43298;52.560;13.508;2024-03-08T00:53:15;100416.41;;;-0.59;100.00
13734;BME280;43298;52.560;13.508;2024-03-08T00:55:42;100405.34;;;-0.50;100.00
13734;BME280;43298;52.560;13.508;2024-03-08T00:58:08;100391.84;;;-0.49;100.00
13734;BME280;43298;52.560;13.508;2024-03-08T01:00:34;100379.13;;;-0.52;100.00
13734;BME280;43298;52.560;13.508;2024-03-08T01:03:00;100360.50;;;-0.39;100.00
13734;BME280;43298;52.560;13.508;2024-03-08T01:05:26;100336.63;;;-0.11;100.00
13734;BME280;43298;52.560;13.508;2024-03-08T01:07:52;100322.97;;;0.13;100.00
13734;BME280;43298;52.560;13.508;2024-03-08T01:10:18;100305.97;;;0.18;100.00
13734;BME280;43298;52.560;13.508;2024-03-08T01:12:43;100314.50;;;0.09;100.00
13734;BME280;43298;52.560;13.508;2024-03-08T01:15:10;100320.50;;;-0.06;100.00
13734;BME280;43298;52.560;13.508;2024-03-08T01:17:36;100311.19;;;-0.05;100.00
13734;BME280;43298;52.560;13.508;2024-03-08T01:20:04;100289.94;;;0.08;100.00
13734;BME280;43298;52.560;13.508;2024-03-08T01:22:30;100289.09;;;0.09;100.00
13734;BME280;43298;52.560;13.508;2024-03-08T01:24:57;100286.63;;;0.00;100.00
13734;BME280;43298;52.560;13.508;2024-03-08T01:27:23;100283.28;;;-0.13;100.00
13734;BME280;43298;52.560;13.508;2024-03-08T01:29:50;100286.75;;;-0.26;100.00
13734;BME280;43298;52.560;13.508;2024-03-08T01:32:16;100271.50;;;-0.20;100.00
13734;BME280;43298;52.560;13.508;2024-03-08T01:34:42;100261.22;;;-0.03;100.00
13734;BME280;43298;52.560;13.508;2024-03-08T01:37:10;100249.28;;;0.10;100.00
13734;BME280;43298;52.560;13.508;2024-03-08T01:39:36;100224.53;;;0.28;100.00
13734;BME280;43298;52.560;13.508;2024-03-08T01:42:02;100221.06;;;0.35;100.00
13734;BME280;43298;52.560;13.508;2024-03-08T01:44:27;100222.81;;;0.32;100.00
13734;BME280;43298;52.560;13.508;2024-03-08T01:46:53;100214.31;;;0.36;100.00
13734;BME280;43298;52.560;13.508;2024-03-08T01:49:21;100213.44;;;0.38;100.00
13734;BME280;43298;52.560;13.508;2024-03-08T01:51:49;100216.84;;;0.34;100.00
13734;BME280;43298;52.560;13.508;2024-03-08T01:54:17;100215.22;;;0.27;100.00
13734;BME280;43298;52.560;13.508;2024-03-08T01:56:44;100209.38;;;0.19;100.00
13734;BME280;43298;52.560;13.508;2024-03-08T01:59:10;100217.06;;;0.07;100.00
13734;BME280;43298;52.560;13.508;2024-03-08T02:01:36;100226.53;;;-0.10;100.00
13734;BME280;43298;52.560;13.508;2024-03-08T02:04:02;100222.34;;;-0.16;100.00
13734;BME280;43298;52.560;13.508;2024-03-08T02:06:27;100207.88;;;-0.06;100.00
13734;BME280;43298;52.560;13.508;2024-03-08T02:08:53;100202.81;;;-0.08;100.00
13734;BME280;43298;52.560;13.508;2024-03-08T02:11:19;100200.38;;;-0.20;100.00
13734;BME280;43298;52.560;13.508;2024-03-08T02:13:46;100198.72;;;-0.27;100.00
13734;BME280;43298;52.560;13.508;2024-03-08T02:16:12;100193.66;;;-0.31;100.00
13734;BME280;43298;52.560;13.508;2024-03-08T02:18:38;100179.28;;;-0.32;100.00
13734;BME280;43298;52.560;13.508;2024-03-08T02:21:06;100160.50;;;-0.12;100.00
13734;BME280;43298;52.560;13.508;2024-03-08T02:23:34;100152.88;;;-0.10;100.00
13734;BME280;43298;52.560;13.508;2024-03-08T02:26:00;100146.06;;;-0.07;100.00
13734;BME280;43298;52.560;13.508;2024-03-08T02:28:26;100145.28;;;-0.15;100.00
13734;BME280;43298;52.560;13.508;2024-03-08T02:30:52;100125.66;;;0.01;100.00
13734;BME280;43298;52.560;13.508;2024-03-08T02:33:25;100130.72;;;0.04;100.00
13734;BME280;43298;52.560;13.508;2024-03-08T02:35:51;100125.72;;;-0.07;100.00
13734;BME280;43298;52.560;13.508;2024-03-08T02:38:22;100113.00;;;-0.05;100.00
13734;BME280;43298;52.560;13.508;2024-03-08T02:40:51;100126.59;;;-0.11;100.00
13734;BME280;43298;52.560;13.508;2024-03-08T02:43:19;100115.53;;;-0.02;100.00
13734;BME280;43298;52.560;13.508;2024-03-08T02:45:45;100109.66;;;-0.09;100.00
13734;BME280;43298;52.560;13.508;2024-03-08T02:48:13;100110.59;;;-0.16;100.00
13734;BME280;43298;52.560;13.508;2024-03-08T02:50:39;100101.97;;;-0.01;100.00
13734;BME280;43298;52.560;13.508;2024-03-08T02:53:06;100098.59;;;0.00;100.00
13734;BME280;43298;52.560;13.508;2024-03-08T02:55:32;100095.16;;;0.03;100.00
13734;BME280;43298;52.560;13.508;2024-03-08T02:58:00;100085.00;;;0.01;100.00
13734;BME280;43298;52.560;13.508;2024-03-08T03:00:26;100088.31;;;0.09;100.00
13734;BME280;43298;52.560;13.508;2024-03-08T03:02:52;100090.72;;;0.21;100.00
13734;BME280;43298;52.560;13.508;2024-03-08T03:05:21;100074.44;;;0.37;100.00
13734;BME280;43298;52.560;13.508;2024-03-08T03:07:46;100073.59;;;0.38;100.00
13734;BME280;43298;52.560;13.508;2024-03-08T03:10:14;100071.84;;;0.45;100.00
13734;BME280;43298;52.560;13.508;2024-03-08T03:12:42;100076.09;;;0.41;100.00
13734;BME280;43298;52.560;13.508;2024-03-08T03:15:08;100070.94;;;0.47;100.00
13734;BME280;43298;52.560;13.508;2024-03-08T03:17:35;100081.13;;;0.47;100.00
13734;BME280;43298;52.560;13.508;2024-03-08T03:20:01;100082.09;;;0.36;100.00
13734;BME280;43298;52.560;13.508;2024-03-08T03:22:34;100081.13;;;0.47;100.00
13734;BME280;43298;52.560;13.508;2024-03-08T03:25:00;100080.22;;;0.51;100.00
13734;BME280;43298;52.560;13.508;2024-03-08T03:27:26;100092.13;;;0.46;100.00
13734;BME280;43298;52.560;13.508;2024-03-08T03:29:52;100088.81;;;0.41;100.00
13734;BME280;43298;52.560;13.508;2024-03-08T03:32:17;100091.47;;;0.32;100.00
13734;BME280;43298;52.560;13.508;2024-03-08T03:34:46;100091.41;;;0.35;100.00
13734;BME280;43298;52.560;13.508;2024-03-08T03:37:12;100093.19;;;0.30;100.00
13734;BME280;43298;52.560;13.508;2024-03-08T03:39:39;100089.75;;;0.31;100.00
13734;BME280;43298;52.560;13.508;2024-03-08T03:42:15;100082.94;;;0.36;100.00
13734;BME280;43298;52.560;13.508;2024-03-08T03:44:47;100082.00;;;0.45;100.00
13734;BME280;43298;52.560;13.508;2024-03-08T03:47:14;100080.41;;;0.38;100.00
13734;BME280;43298;52.560;13.508;2024-03-08T03:49:41;100084.72;;;0.27;100.00
13734;BME280;43298;52.560;13.508;2024-03-08T03:52:07;100101.84;;;0.13;100.00
13734;BME280;43298;52.560;13.508;2024-03-08T03:54:33;100099.41;;;-0.01;100.00
13734;BME280;43298;52.560;13.508;2024-03-08T03:56:59;100100.22;;;0.04;100.00
13734;BME280;43298;52.560;13.508;2024-03-08T03:59:26;100095.22;;;-0.04;100.00
13734;BME280;43298;52.560;13.508;2024-03-08T04:01:53;100096.16;;;-0.15;100.00
13734;BME280;43298;52.560;13.508;2024-03-08T04:04:23;100095.41;;;-0.23;100.00
13734;BME280;43298;52.560;13.508;2024-03-08T04:06:50;100098.78;;;-0.24;100.00
13734;BME280;43298;52.560;13.508;2024-03-08T04:09:17;100086.84;;;-0.13;100.00
13734;BME280;43298;52.560;13.508;2024-03-08T04:11:45;100082.56;;;-0.11;100.00
13734;BME280;43298;52.560;13.508;2024-03-08T04:14:11;100084.31;;;-0.13;100.00
13734;BME280;43298;52.560;13.508;2024-03-08T04:16:37;100068.22;;;-0.15;100.00
13734;BME280;43298;52.560;13.508;2024-03-08T04:19:03;100072.56;;;-0.26;100.00
13734;BME280;43298;52.560;13.508;2024-03-08T04:21:33;100066.63;;;-0.25;100.00
13734;BME280;43298;52.560;13.508;2024-03-08T04:23:58;100060.72;;;-0.29;100.00
13734;BME280;43298;52.560;13.508;2024-03-08T04:26:24;100063.41;;;-0.42;100.00
13734;BME280;43298;52.560;13.508;2024-03-08T04:28:51;100070.19;;;-0.47;100.00
13734;BME280;43298;52.560;13.508;2024-03-08T04:31:17;100066.88;;;-0.55;100.00
13734;BME280;43298;52.560;13.508;2024-03-08T04:33:43;100072.88;;;-0.67;100.00
13734;BME280;43298;52.560;13.508;2024-03-08T04:36:10;100073.84;;;-0.78;100.00
13734;BME280;43298;52.560;13.508;2024-03-08T04:38:40;100069.66;;;-0.87;100.00
13734;BME280;43298;52.560;13.508;2024-03-08T04:41:07;100072.19;;;-0.87;100.00
13734;BME280;43298;52.560;13.508;2024-03-08T04:43:33;100066.25;;;-0.84;100.00
13734;BME280;43298;52.560;13.508;2024-03-08T04:46:00;100061.09;;;-0.72;100.00
13734;BME280;43298;52.560;13.508;2024-03-08T04:48:25;100061.09;;;-0.72;100.00
13734;BME280;43298;52.560;13.508;2024-03-08T04:50:52;100059.44;;;-0.78;100.00
13734;BME280;43298;52.560;13.508;2024-03-08T04:53:19;100055.19;;;-0.74;100.00
13734;BME280;43298;52.560;13.508;2024-03-08T04:55:45;100052.69;;;-0.79;100.00
13734;BME280;43298;52.560;13.508;2024-03-08T04:58:11;100046.78;;;-0.82;100.00
13734;BME280;43298;52.560;13.508;2024-03-08T05:00:36;100044.19;;;-0.75;100.00
13734;BME280;43298;52.560;13.508;2024-03-08T05:03:02;100038.25;;;-0.72;100.00
13734;BME280;43298;52.560;13.508;2024-03-08T05:05:29;100036.47;;;-0.63;100.00
13734;BME280;43298;52.560;13.508;2024-03-08T05:07:55;100041.59;;;-0.64;100.00
13734;BME280;43298;52.560;13.508;2024-03-08T05:10:21;100036.53;;;-0.67;100.00
13734;BME280;43298;52.560;13.508;2024-03-08T05:12:47;100031.44;;;-0.64;100.00
13734;BME280;43298;52.560;13.508;2024-03-08T05:15:13;100029.66;;;-0.55;100.00
13734;BME280;43298;52.560;13.508;2024-03-08T05:17:40;100015.19;;;-0.47;100.00
13734;BME280;43298;52.560;13.508;2024-03-08T05:20:06;100019.44;;;-0.50;100.00
13734;BME280;43298;52.560;13.508;2024-03-08T05:22:37;100012.69;;;-0.50;100.00
13734;BME280;43298;52.560;13.508;2024-03-08T05:25:04;100016.00;;;-0.43;100.00
13734;BME280;43298;52.560;13.508;2024-03-08T05:27:29;100016.84;;;-0.41;100.00
13734;BME280;43298;52.560;13.508;2024-03-08T05:29:55;100008.28;;;-0.33;100.00
13734;BME280;43298;52.560;13.508;2024-03-08T05:32:21;99998.91;;;-0.26;100.00
13734;BME280;43298;52.560;13.508;2024-03-08T05:34:47;99997.22;;;-0.26;100.00
13734;BME280;43298;52.560;13.508;2024-03-08T05:37:13;99999.78;;;-0.30;100.00
13734;BME280;43298;52.560;13.508;2024-03-08T05:39:38;99998.88;;;-0.23;100.00
13734;BME280;43298;52.560;13.508;2024-03-08T05:42:06;99985.34;;;-0.25;100.00
13734;BME280;43298;52.560;13.508;2024-03-08T05:44:34;99982.78;;;-0.25;100.00
13734;BME280;43298;52.560;13.508;2024-03-08T05:47:00;99981.84;;;-0.15;100.00
13734;BME280;43298;52.560;13.508;2024-03-08T05:49:26;99982.84;;;-0.27;100.00
13734;BME280;43298;52.560;13.508;2024-03-08T05:51:51;99986.31;;;-0.34;100.00
13734;BME280;43298;52.560;13.508;2024-03-08T05:54:17;99988.03;;;-0.39;100.00
13734;BME280;43298;52.560;13.508;2024-03-08T05:56:43;99993.91;;;-0.34;100.00
13734;BME280;43298;52.560;13.508;2024-03-08T05:59:10;99990.47;;;-0.28;100.00
13734;BME280;43298;52.560;13.508;2024-03-08T06:01:36;99990.50;;;-0.31;100.00
13734;BME280;43298;52.560;13.508;2024-03-08T06:04:03;99985.31;;;-0.24;100.00
13734;BME280;43298;52.560;13.508;2024-03-08T06:06:29;99998.03;;;-0.24;100.00
13734;BME280;43298;52.560;13.508;2024-03-08T06:08:55;100002.31;;;-0.27;100.00
13734;BME280;43298;52.560;13.508;2024-03-08T06:11:25;100004.00;;;-0.29;100.00
13734;BME280;43298;52.560;13.508;2024-03-08T06:13:53;100009.09;;;-0.29;100.00
13734;BME280;43298;52.560;13.508;2024-03-08T06:16:28;100005.59;;;-0.19;100.00
13734;BME280;43298;52.560;13.508;2024-03-08T06:18:56;100001.22;;;-0.05;100.00
13734;BME280;43298;52.560;13.508;2024-03-08T06:21:23;100000.28;;;0.02;100.00
13734;BME280;43298;52.560;13.508;2024-03-08T06:23:53;99985.88;;;0.04;100.00
13734;BME280;43298;52.560;13.508;2024-03-08T06:26:21;99987.56;;;0.05;100.00
13734;BME280;43298;52.560;13.508;2024-03-08T06:28:48;99990.88;;;0.10;100.00
13734;BME280;43298;52.560;13.508;2024-03-08T06:31:14;99990.03;;;0.13;100.00
13734;BME280;43298;52.560;13.508;2024-03-08T06:33:40;99991.69;;;0.14;100.00
13734;BME280;43298;52.560;13.508;2024-03-08T06:36:06;99995.03;;;0.17;100.00
13734;BME280;43298;52.560;13.508;2024-03-08T06:38:33;99997.50;;;0.25;100.00
13734;BME280;43298;52.560;13.508;2024-03-08T06:40:58;99986.41;;;0.29;100.00
13734;BME280;43298;52.560;13.508;2024-03-08T06:43:24;99991.50;;;0.30;100.00
13734;BME280;43298;52.560;13.508;2024-03-08T06:45:58;99986.28;;;0.39;100.00
13734;BME280;43298;52.560;13.508;2024-03-08T06:48:23;99980.31;;;0.43;100.00
13734;BME280;43298;52.560;13.508;2024-03-08T06:50:49;99969.19;;;0.50;100.00
13734;BME280;43298;52.560;13.508;2024-03-08T06:53:15;99978.31;;;0.63;100.00
13734;BME280;43298;52.560;13.508;2024-03-08T06:55:44;99971.31;;;0.79;100.00
13734;BME280;43298;52.560;13.508;2024-03-08T06:58:10;99968.47;;;0.98;100.00
13734;BME280;43298;52.560;13.508;2024-03-08T07:00:37;99966.50;;;1.15;100.00
13734;BME280;43298;52.560;13.508;2024-03-08T07:03:03;99960.25;;;1.33;100.00
13734;BME280;43298;52.560;13.508;2024-03-08T07:05:30;99963.47;;;1.42;100.00
13734;BME280;43298;52.560;13.508;2024-03-08T07:07:56;99958.81;;;1.67;100.00
13734;BME280;43298;52.560;13.508;2024-03-08T07:10:22;99958.53;;;1.80;100.00
13734;BME280;43298;52.560;13.508;2024-03-08T07:12:53;99965.09;;;1.93;100.00
13734;BME280;43298;52.560;13.508;2024-03-08T07:15:20;99969.94;;;2.05;100.00
13734;BME280;43298;52.560;13.508;2024-03-08T07:17:47;99971.44;;;2.17;100.00
13734;BME280;43298;52.560;13.508;2024-03-08T07:20:14;99982.31;;;2.23;100.00
13734;BME280;43298;52.560;13.508;2024-03-08T07:22:45;99986.59;;;2.24;100.00
13734;BME280;43298;52.560;13.508;2024-03-08T07:25:14;99988.56;;;2.50;100.00
13734;BME280;43298;52.560;13.508;2024-03-08T07:27:55;99998.53;;;2.62;100.00
13734;BME280;43298;52.560;13.508;2024-03-08T07:30:24;100014.34;;;2.77;100.00
13734;BME280;43298;52.560;13.508;2024-03-08T07:33:09;100024.13;;;2.95;100.00
13734;BME280;43298;52.560;13.508;2024-03-08T07:35:40;100041.53;;;3.16;100.00
13734;BME280;43298;52.560;13.508;2024-03-08T07:38:08;100054.84;;;3.29;100.00
13734;BME280;43298;52.560;13.508;2024-03-08T07:40:39;100081.06;;;3.39;100.00
13734;BME280;43298;52.560;13.508;2024-03-08T07:43:07;100103.19;;;3.75;100.00
13734;BME280;43298;52.560;13.508;2024-03-08T07:45:34;100125.91;;;3.87;100.00
13734;BME280;43298;52.560;13.508;2024-03-08T07:48:01;100139.84;;;4.07;100.00
13734;BME280;43298;52.560;13.508;2024-03-08T07:50:28;100178.06;;;4.15;100.00
13734;BME280;43298;52.560;13.508;2024-03-08T07:52:54;100205.66;;;4.36;100.00
13734;BME280;43298;52.560;13.508;2024-03-08T07:55:20;100236.03;;;4.49;100.00
13734;BME280;43298;52.560;13.508;2024-03-08T07:57:49;100280.34;;;4.53;100.00
13734;BME280;43298;52.560;13.508;2024-03-08T08:00:16;100296.63;;;4.82;100.00
13734;BME280;43298;52.560;13.508;2024-03-08T08:02:44;100352.16;;;4.82;100.00
13734;BME280;43298;52.560;13.508;2024-03-08T08:05:11;100393.50;;;4.67;100.00
13734;BME280;43298;52.560;13.508;2024-03-08T08:07:37;100406.59;;;4.90;100.00
13734;BME280;43298;52.560;13.508;2024-03-08T08:10:03;100437.03;;;5.02;100.00
13734;BME280;43298;52.560;13.508;2024-03-08T08:12:31;100458.28;;;5.07;100.00
13734;BME280;43298;52.560;13.508;2024-03-08T08:14:59;100483.69;;;5.14;100.00
13734;BME280;43298;52.560;13.508;2024-03-08T08:17:25;100500.25;;;5.38;100.00
13734;BME280;43298;52.560;13.508;2024-03-08T08:19:51;100527.72;;;5.31;100.00
13734;BME280;43298;52.560;13.508;2024-03-08T08:22:17;100534.97;;;5.49;100.00
13734;BME280;43298;52.560;13.508;2024-03-08T08:24:43;100548.41;;;5.59;100.00
13734;BME280;43298;52.560;13.508;2024-03-08T08:27:09;100563.38;;;5.77;100.00
13734;BME280;43298;52.560;13.508;2024-03-08T08:29:37;100574.31;;;6.17;100.00
13734;BME280;43298;52.560;13.508;2024-03-08T08:32:03;100608.00;;;6.37;100.00
13734;BME280;43298;52.560;13.508;2024-03-08T08:34:29;100630.91;;;6.45;100.00
13734;BME280;43298;52.560;13.508;2024-03-08T08:36:55;100647.34;;;6.70;100.00
13734;BME280;43298;52.560;13.508;2024-03-08T08:39:21;100709.31;;;6.59;100.00
13734;BME280;43298;52.560;13.508;2024-03-08T08:41:48;100743.25;;;6.38;100.00
13734;BME280;43298;52.560;13.508;2024-03-08T08:44:14;100757.47;;;6.50;100.00
13734;BME280;43298;52.560;13.508;2024-03-08T08:46:40;100767.94;;;6.77;100.00
13734;BME280;43298;52.560;13.508;2024-03-08T08:49:06;100786.97;;;7.02;100.00
13734;BME280;43298;52.560;13.508;2024-03-08T08:51:36;100833.97;;;7.07;100.00
13734;BME280;43298;52.560;13.508;2024-03-08T08:54:02;100875.06;;;7.09;100.00
13734;BME280;43298;52.560;13.508;2024-03-08T08:56:28;100913.28;;;7.22;100.00
13734;BME280;43298;52.560;13.508;2024-03-08T08:58:54;100929.59;;;7.21;100.00
13734;BME280;43298;52.560;13.508;2024-03-08T09:01:20;100964.13;;;7.11;100.00
13734;BME280;43298;52.560;13.508;2024-03-08T09:03:46;100961.97;;;7.30;100.00
13734;BME280;43298;52.560;13.508;2024-03-08T09:06:12;100972.97;;;7.00;100.00
13734;BME280;43298;52.560;13.508;2024-03-08T09:08:42;100981.34;;;7.09;100.00
13734;BME280;43298;52.560;13.508;2024-03-08T09:11:10;100988.88;;;7.15;100.00
13734;BME280;43298;52.560;13.508;2024-03-08T09:13:36;100980.34;;;7.50;100.00
13734;BME280;43298;52.560;13.508;2024-03-08T09:16:02;101009.41;;;7.52;100.00
13734;BME280;43298;52.560;13.508;2024-03-08T09:18:31;101020.44;;;7.57;100.00
13734;BME280;43298;52.560;13.508;2024-03-08T09:20:58;101050.69;;;7.47;100.00
13734;BME280;43298;52.560;13.508;2024-03-08T09:23:25;101067.81;;;7.50;100.00
13734;BME280;43298;52.560;13.508;2024-03-08T09:25:58;101076.63;;;7.75;100.00
13734;BME280;43298;52.560;13.508;2024-03-08T09:28:24;101087.50;;;7.86;100.00
13734;BME280;43298;52.560;13.508;2024-03-08T09:30:50;101108.88;;;7.88;100.00
13734;BME280;43298;52.560;13.508;2024-03-08T09:33:16;101119.19;;;7.88;100.00
13734;BME280;43298;52.560;13.508;2024-03-08T09:35:46;101133.13;;;7.79;100.00
13734;BME280;43298;52.560;13.508;2024-03-08T09:38:13;101138.22;;;7.81;100.00
13734;BME280;43298;52.560;13.508;2024-03-08T09:40:41;101137.31;;;7.83;100.00
13734;BME280;43298;52.560;13.508;2024-03-08T09:43:07;101135.88;;;8.07;100.00
13734;BME280;43298;52.560;13.508;2024-03-08T09:45:36;101159.44;;;7.90;100.00
13734;BME280;43298;52.560;13.508;2024-03-08T09:48:13;101171.53;;;8.25;100.00
13734;BME280;43298;52.560;13.508;2024-03-08T09:50:43;101197.22;;;8.60;100.00
13734;BME280;43298;52.560;13.508;2024-03-08T09:53:09;101219.03;;;8.80;100.00
13734;BME280;43298;52.560;13.508;2024-03-08T09:55:38;101249.63;;;8.92;100.00
13734;BME280;43298;52.560;13.508;2024-03-08T09:58:08;101262.78;;;9.15;100.00
13734;BME280;43298;52.560;13.508;2024-03-08T10:00:43;101276.06;;;9.31;100.00
13734;BME280;43298;52.560;13.508;2024-03-08T10:03:09;101301.00;;;9.32;100.00
13734;BME280;43298;52.560;13.508;2024-03-08T10:05:36;101297.44;;;9.36;100.00
13734;BME280;43298;52.560;13.508;2024-03-08T10:08:03;101308.72;;;9.34;100.00
13734;BME280;43298;52.560;13.508;2024-03-08T10:10:30;101306.84;;;9.39;100.00
13734;BME280;43298;52.560;13.508;2024-03-08T10:12:56;101313.41;;;9.19;100.00
13734;BME280;43298;52.560;13.508;2024-03-08T10:15:22;101303.56;;;9.63;100.00
13734;BME280;43298;52.560;13.508;2024-03-08T10:17:48;101309.53;;;9.65;100.00
13734;BME280;43298;52.560;13.508;2024-03-08T10:20:18;101318.28;;;9.28;100.00
13734;BME280;43298;52.560;13.508;2024-03-08T10:22:44;101313.69;;;9.40;100.00
13734;BME280;43298;52.560;13.508;2024-03-08T10:25:11;101306.00;;;9.06;100.00
13734;BME280;43298;52.560;13.508;2024-03-08T10:27:39;101299.28;;;9.31;100.00
13734;BME280;43298;52.560;13.508;2024-03-08T10:30:15;101297.91;;;9.19;100.00
13734;BME280;43298;52.560;13.508;2024-03-08T10:32:45;101278.66;;;9.62;100.00
13734;BME280;43298;52.560;13.508;2024-03-08T10:35:12;101291.09;;;10.06;100.00
13734;BME280;43298;52.560;13.508;2024-03-08T10:37:49;101303.00;;;9.82;100.00
13734;BME280;43298;52.560;13.508;2024-03-08T10:40:19;101307.47;;;9.76;100.00
13734;BME280;43298;52.560;13.508;2024-03-08T10:42:56;101310.06;;;10.05;100.00
13734;BME280;43298;52.560;13.508;2024-03-08T10:45:38;101319.03;;;9.93;100.00
13734;BME280;43298;52.560;13.508;2024-03-08T10:48:26;101302.88;;;9.87;100.00
13734;BME280;43298;52.560;13.508;2024-03-08T10:50:59;101310.47;;;9.32;100.00
13734;BME280;43298;52.560;13.508;2024-03-08T10:53:27;101303.50;;;9.66;100.00
13734;BME280;43298;52.560;13.508;2024-03-08T10:55:53;101304.34;;;9.65;100.00
13734;BME280;43298;52.560;13.508;2024-03-08T10:58:24;101315.22;;;10.05;100.00
13734;BME280;43298;52.560;13.508;2024-03-08T11:00:54;101320.19;;;10.12;100.00
13734;BME280;43298;52.560;13.508;2024-03-08T11:06:09;101355.06;;;10.27;100.00
13734;BME280;43298;52.560;13.508;2024-03-08T11:08:40;101379.41;;;10.47;100.00
13734;BME280;43298;52.560;13.508;2024-03-08T11:11:26;101395.59;;;10.52;100.00
13734;BME280;43298;52.560;13.508;2024-03-08T11:13:55;101391.03;;;10.62;100.00
13734;BME280;43298;52.560;13.508;2024-03-08T11:21:43;101424.31;;;10.45;100.00
13734;BME280;43298;52.560;13.508;2024-03-08T11:24:13;101418.63;;;10.61;100.00
13734;BME280;43298;52.560;13.508;2024-03-08T11:26:40;101420.81;;;10.46;100.00
13734;BME280;43298;52.560;13.508;2024-03-08T11:32:16;101416.44;;;11.01;100.00
13734;BME280;43298;52.560;13.508;2024-03-08T11:34:49;101416.97;;;11.63;100.00
13734;BME280;43298;52.560;13.508;2024-03-08T11:37:20;101411.28;;;11.01;100.00
13734;BME280;43298;52.560;13.508;2024-03-08T11:39:51;101399.44;;;11.20;100.00
13734;BME280;43298;52.560;13.508;2024-03-08T11:42:18;101404.44;;;11.25;100.00
13734;BME280;43298;52.560;13.508;2024-03-08T11:44:49;101402.97;;;10.92;100.00
13734;BME280;43298;52.560;13.508;2024-03-08T11:47:16;101395.28;;;11.41;100.00
13734;BME280;43298;52.560;13.508;2024-03-08T11:49:42;101398.53;;;11.72;100.00
13734;BME280;43298;52.560;13.508;2024-03-08T11:52:11;101404.56;;;11.71;100.00
13734;BME280;43298;52.560;13.508;2024-03-08T11:54:52;101397.94;;;12.10;100.00
13734;BME280;43298;52.560;13.508;2024-03-08T11:57:23;101400.41;;;11.16;100.00
13734;BME280;43298;52.560;13.508;2024-03-08T11:59:54;101392.34;;;11.25;100.00
13734;BME280;43298;52.560;13.508;2024-03-08T12:02:21;101401.22;;;11.43;100.00
13734;BME280;43298;52.560;13.508;2024-03-08T12:04:47;101396.31;;;11.60;100.00
13734;BME280;43298;52.560;13.508;2024-03-08T12:07:12;101401.38;;;11.87;100.00
13734;BME280;43298;52.560;13.508;2024-03-08T12:09:42;101384.75;;;10.95;95.84
13734;BME280;43298;52.560;13.508;2024-03-08T12:12:12;101393.69;;;11.11;97.11
13734;BME280;43298;52.560;13.508;2024-03-08T12:14:42;101398.44;;;11.24;98.32
13734;BME280;43298;52.560;13.508;2024-03-08T12:17:09;101388.88;;;11.51;96.61
13734;BME280;43298;52.560;13.508;2024-03-08T12:19:36;101393.88;;;11.55;97.72
13734;BME280;43298;52.560;13.508;2024-03-08T12:22:10;101391.00;;;11.14;98.25
13734;BME280;43298;52.560;13.508;2024-03-08T12:24:36;101379.56;;;11.21;96.90
13734;BME280;43298;52.560;13.508;2024-03-08T12:27:18;101378.34;;;11.06;97.18
13734;BME280;43298;52.560;13.508;2024-03-08T12:29:45;101377.41;;;11.09;96.25
13734;BME280;43298;52.560;13.508;2024-03-08T12:32:10;101375.38;;;11.17;97.14
13734;BME280;43298;52.560;13.508;2024-03-08T12:34:37;101378.13;;;11.12;96.73
13734;BME280;43298;52.560;13.508;2024-03-08T12:37:03;101367.19;;;11.29;96.88
13734;BME280;43298;52.560;13.508;2024-03-08T12:39:32;101361.00;;;11.08;95.87
13734;BME280;43298;52.560;13.508;2024-03-08T12:42:00;101367.56;;;11.18;97.83
13734;BME280;43298;52.560;13.508;2024-03-08T12:44:26;101354.00;;;10.86;95.65
13734;BME280;43298;52.560;13.508;2024-03-08T12:46:53;101361.16;;;10.52;96.29
13734;BME280;43298;52.560;13.508;2024-03-08T12:49:20;101351.78;;;11.26;98.60
13734;BME280;43298;52.560;13.508;2024-03-08T12:51:48;101337.84;;;11.30;96.82